sensor_id;sensor_type;location;lat;lon;timestamp;temperature;humidity
27567;DHT22;15006;48.584;9.186;2023-12-04T00:00:47;-10.60;91.80
27567;DHT22;15006;48.584;9.186;2023-12-04T00:03:13;-10.60;91.80
27567;DHT22;15006;48.584;9.186;2023-12-04T00:05:42;-10.60;91.60
27567;DHT22;15006;48.584;9.186;2023-12-04T00:08:09;-10.60;91.60
27567;DHT22;15006;48.584;9.186;2023-12-04T00:10:36;-10.60;91.60
27567;DHT22;15006;48.584;9.186;2023-12-04T00:13:01;-10.60;91.70
27567;DHT22;15006;48.584;9.186;2023-12-04T00:15:28;-10.60;91.90
27567;DHT22;15006;48.584;9.186;2023-12-04T00:17:53;-10.60;91.80
27567;DHT22;15006;48.584;9.186;2023-12-04T00:20:19;-10.60;91.60
27567;DHT22;15006;48.584;9.186;2023-12-04T00:22:45;-10.60;91.50
27567;DHT22;15006;48.584;9.186;2023-12-04T00:25:11;-10.60;91.50
27567;DHT22;15006;48.584;9.186;2023-12-04T00:27:37;-10.60;91.40
27567;DHT22;15006;48.584;9.186;2023-12-04T00:30:04;-10.60;91.40
27567;DHT22;15006;48.584;9.186;2023-12-04T00:32:31;-10.70;91.30
27567;DHT22;15006;48.584;9.186;2023-12-04T00:34:58;-10.70;91.20
27567;DHT22;15006;48.584;9.186;2023-12-04T00:37:23;-10.70;91.30
27567;DHT22;15006;48.584;9.186;2023-12-04T00:39:49;-10.70;91.40
27567;DHT22;15006;48.584;9.186;2023-12-04T00:42:15;-10.80;90.90
27567;DHT22;15006;48.584;9.186;2023-12-04T00:44:41;-10.80;90.80
27567;DHT22;15006;48.584;9.186;2023-12-04T00:47:07;-10.80;90.80
27567;DHT22;15006;48.584;9.186;2023-12-04T00:49:33;-10.80;90.80
27567;DHT22;15006;48.584;9.186;2023-12-04T00:51:59;-10.80;90.90
27567;DHT22;15006;48.584;9.186;2023-12-04T00:54:25;-10.90;91.10
27567;DHT22;15006;48.584;9.186;2023-12-04T00:56:51;-10.90;91.30
27567;DHT22;15006;48.584;9.186;2023-12-04T00:59:16;-10.90;91.20
27567;DHT22;15006;48.584;9.186;2023-12-04T01:01:42;-10.90;91.20
27567;DHT22;15006;48.584;9.186;2023-12-04T01:04:08;-10.90;91.30
27567;DHT22;15006;48.584;9.186;2023-12-04T01:06:35;-10.90;91.50
27567;DHT22;15006;48.584;9.186;2023-12-04T01:09:01;-10.90;91.70
27567;DHT22;15006;48.584;9.186;2023-12-04T01:11:27;-10.90;91.80
27567;DHT22;15006;48.584;9.186;2023-12-04T01:13:53;-10.90;91.90
27567;DHT22;15006;48.584;9.186;2023-12-04T01:16:19;-10.90;91.80
27567;DHT22;15006;48.584;9.186;2023-12-04T01:18:45;-10.90;91.90
27567;DHT22;15006;48.584;9.186;2023-12-04T01:21:11;-10.90;91.90
27567;DHT22;15006;48.584;9.186;2023-12-04T01:23:37;-10.90;92.00
27567;DHT22;15006;48.584;9.186;2023-12-04T01:26:04;-10.80;92.00
27567;DHT22;15006;48.584;9.186;2023-12-04T01:28:30;-10.80;92.00
27567;DHT22;15006;48.584;9.186;2023-12-04T01:30:56;-10.80;92.10
27567;DHT22;15006;48.584;9.186;2023-12-04T01:33:22;-10.80;92.10
27567;DHT22;15006;48.584;9.186;2023-12-04T01:35:48;-10.80;92.10
27567;DHT22;15006;48.584;9.186;2023-12-04T01:38:14;-10.80;92.20
27567;DHT22;15006;48.584;9.186;2023-12-04T01:40:40;-10.80;92.20
27567;DHT22;15006;48.584;9.186;2023-12-04T01:43:06;-10.70;92.20
27567;DHT22;15006;48.584;9.186;2023-12-04T01:45:32;-10.70;92.30
27567;DHT22;15006;48.584;9.186;2023-12-04T01:47:58;-10.70;92.30
27567;DHT22;15006;48.584;9.186;2023-12-04T01:50:24;-10.70;92.40
27567;DHT22;15006;48.584;9.186;2023-12-04T01:52:52;-10.60;92.50
27567;DHT22;15006;48.584;9.186;2023-12-04T01:55:18;-10.60;92.60
27567;DHT22;15006;48.584;9.186;2023-12-04T01:57:44;-10.60;92.70
27567;DHT22;15006;48.584;9.186;2023-12-04T02:00:11;-10.50;92.50
27567;DHT22;15006;48.584;9.186;2023-12-04T02:02:39;-10.50;92.30
27567;DHT22;15006;48.584;9.186;2023-12-04T02:05:07;-10.50;92.30
27567;DHT22;15006;48.584;9.186;2023-12-04T02:07:34;-10.50;92.40
27567;DHT22;15006;48.584;9.186;2023-12-04T02:10:04;-10.40;92.40
27567;DHT22;15006;48.584;9.186;2023-12-04T02:12:32;-10.40;92.40
27567;DHT22;15006;48.584;9.186;2023-12-04T02:14:58;-10.40;92.40
27567;DHT22;15006;48.584;9.186;2023-12-04T02:17:26;-10.40;92.30
27567;DHT22;15006;48.584;9.186;2023-12-04T02:19:53;-10.40;92.10
27567;DHT22;15006;48.584;9.186;2023-12-04T02:22:20;-10.40;92.00
27567;DHT22;15006;48.584;9.186;2023-12-04T02:24:46;-10.30;91.90
27567;DHT22;15006;48.584;9.186;2023-12-04T02:27:19;-10.40;91.80
27567;DHT22;15006;48.584;9.186;2023-12-04T02:29:57;-10.40;91.60
27567;DHT22;15006;48.584;9.186;2023-12-04T02:32:30;-10.40;91.30
27567;DHT22;15006;48.584;9.186;2023-12-04T02:34:59;-10.40;91.30
27567;DHT22;15006;48.584;9.186;2023-12-04T02:37:29;-10.40;91.20
27567;DHT22;15006;48.584;9.186;2023-12-04T02:39:56;-10.40;91.40
27567;DHT22;15006;48.584;9.186;2023-12-04T02:42:22;-10.40;91.50
27567;DHT22;15006;48.584;9.186;2023-12-04T02:44:51;-10.50;91.40
27567;DHT22;15006;48.584;9.186;2023-12-04T02:47:17;-10.50;91.40
27567;DHT22;15006;48.584;9.186;2023-12-04T02:49:44;-10.50;91.50
27567;DHT22;15006;48.584;9.186;2023-12-04T02:52:10;-10.50;91.50
27567;DHT22;15006;48.584;9.186;2023-12-04T02:54:36;-10.50;91.50
27567;DHT22;15006;48.584;9.186;2023-12-04T02:57:02;-10.50;91.70
27567;DHT22;15006;48.584;9.186;2023-12-04T02:59:28;-10.50;91.80
27567;DHT22;15006;48.584;9.186;2023-12-04T03:01:54;-10.50;91.80
27567;DHT22;15006;48.584;9.186;2023-12-04T03:04:20;-10.50;91.70
27567;DHT22;15006;48.584;9.186;2023-12-04T03:06:46;-10.50;91.60
27567;DHT22;15006;48.584;9.186;2023-12-04T03:09:12;-10.60;91.60
27567;DHT22;15006;48.584;9.186;2023-12-04T03:11:41;-10.50;91.70
27567;DHT22;15006;48.584;9.186;2023-12-04T03:14:08;-10.60;91.50
27567;DHT22;15006;48.584;9.186;2023-12-04T03:16:33;-10.60;91.60
27567;DHT22;15006;48.584;9.186;2023-12-04T03:18:59;-10.60;91.90
27567;DHT22;15006;48.584;9.186;2023-12-04T03:21:26;-10.60;92.00
27567;DHT22;15006;48.584;9.186;2023-12-04T03:23:52;-10.50;92.20
27567;DHT22;15006;48.584;9.186;2023-12-04T03:26:18;-10.50;92.20
27567;DHT22;15006;48.584;9.186;2023-12-04T03:28:43;-10.50;92.40
27567;DHT22;15006;48.584;9.186;2023-12-04T03:31:09;-10.50;92.70
27567;DHT22;15006;48.584;9.186;2023-12-04T03:33:35;-10.50;93.10
27567;DHT22;15006;48.584;9.186;2023-12-04T03:36:01;-10.40;92.90
27567;DHT22;15006;48.584;9.186;2023-12-04T03:38:28;-10.40;93.00
27567;DHT22;15006;48.584;9.186;2023-12-04T03:40:54;-10.30;93.00
27567;DHT22;15006;48.584;9.186;2023-12-04T03:43:19;-10.30;93.20
27567;DHT22;15006;48.584;9.186;2023-12-04T03:45:45;-10.30;93.30
27567;DHT22;15006;48.584;9.186;2023-12-04T03:48:11;-10.20;93.30
27567;DHT22;15006;48.584;9.186;2023-12-04T03:50:37;-10.20;93.10
27567;DHT22;15006;48.584;9.186;2023-12-04T03:53:03;-10.20;93.20
27567;DHT22;15006;48.584;9.186;2023-12-04T03:55:29;-10.10;93.40
27567;DHT22;15006;48.584;9.186;2023-12-04T03:57:56;-10.10;93.50
27567;DHT22;15006;48.584;9.186;2023-12-04T04:00:23;-10.00;93.70
27567;DHT22;15006;48.584;9.186;2023-12-04T04:02:49;-10.00;93.70
27567;DHT22;15006;48.584;9.186;2023-12-04T04:05:15;-9.90;93.70
27567;DHT22;15006;48.584;9.186;2023-12-04T04:07:42;-9.90;93.60
27567;DHT22;15006;48.584;9.186;2023-12-04T04:10:08;-9.80;93.60
27567;DHT22;15006;48.584;9.186;2023-12-04T04:12:34;-9.80;93.50
27567;DHT22;15006;48.584;9.186;2023-12-04T04:15:00;-9.70;93.40
27567;DHT22;15006;48.584;9.186;2023-12-04T04:17:26;-9.70;93.40
27567;DHT22;15006;48.584;9.186;2023-12-04T04:19:53;-9.60;93.50
27567;DHT22;15006;48.584;9.186;2023-12-04T04:22:23;-9.60;93.50
27567;DHT22;15006;48.584;9.186;2023-12-04T04:24:49;-9.60;93.30
27567;DHT22;15006;48.584;9.186;2023-12-04T04:27:15;-9.50;93.40
27567;DHT22;15006;48.584;9.186;2023-12-04T04:29:41;-9.50;93.50
27567;DHT22;15006;48.584;9.186;2023-12-04T04:32:07;-9.50;93.70
27567;DHT22;15006;48.584;9.186;2023-12-04T04:34:33;-9.40;93.70
27567;DHT22;15006;48.584;9.186;2023-12-04T04:36:59;-9.40;93.50
27567;DHT22;15006;48.584;9.186;2023-12-04T04:39:25;-9.40;93.50
27567;DHT22;15006;48.584;9.186;2023-12-04T04:41:51;-9.40;93.50
27567;DHT22;15006;48.584;9.186;2023-12-04T04:44:17;-9.30;93.90
27567;DHT22;15006;48.584;9.186;2023-12-04T04:46:44;-9.30;94.20
27567;DHT22;15006;48.584;9.186;2023-12-04T04:49:10;-9.30;94.20
27567;DHT22;15006;48.584;9.186;2023-12-04T04:51:36;-9.20;94.10
27567;DHT22;15006;48.584;9.186;2023-12-04T04:54:02;-9.20;94.10
27567;DHT22;15006;48.584;9.186;2023-12-04T04:56:29;-9.10;94.10
27567;DHT22;15006;48.584;9.186;2023-12-04T04:58:55;-9.10;94.10
27567;DHT22;15006;48.584;9.186;2023-12-04T05:01:21;-9.10;93.90
27567;DHT22;15006;48.584;9.186;2023-12-04T05:03:47;-9.00;93.80
27567;DHT22;15006;48.584;9.186;2023-12-04T05:06:14;-9.00;93.80
27567;DHT22;15006;48.584;9.186;2023-12-04T05:08:40;-9.00;93.70
27567;DHT22;15006;48.584;9.186;2023-12-04T05:11:06;-9.00;93.80
27567;DHT22;15006;48.584;9.186;2023-12-04T05:13:32;-9.00;93.80
27567;DHT22;15006;48.584;9.186;2023-12-04T05:15:58;-9.00;93.80
27567;DHT22;15006;48.584;9.186;2023-12-04T05:18:24;-8.90;93.70
27567;DHT22;15006;48.584;9.186;2023-12-04T05:20:51;-8.90;94.00
27567;DHT22;15006;48.584;9.186;2023-12-04T05:23:17;-8.90;93.60
27567;DHT22;15006;48.584;9.186;2023-12-04T05:25:42;-8.90;93.60
27567;DHT22;15006;48.584;9.186;2023-12-04T05:28:08;-8.90;93.40
27567;DHT22;15006;48.584;9.186;2023-12-04T05:30:34;-8.90;93.30
27567;DHT22;15006;48.584;9.186;2023-12-04T05:33:00;-8.90;93.30
27567;DHT22;15006;48.584;9.186;2023-12-04T05:35:26;-8.90;93.40
27567;DHT22;15006;48.584;9.186;2023-12-04T05:37:52;-8.90;93.40
27567;DHT22;15006;48.584;9.186;2023-12-04T05:40:18;-8.90;93.40
27567;DHT22;15006;48.584;9.186;2023-12-04T05:42:44;-8.80;93.50
27567;DHT22;15006;48.584;9.186;2023-12-04T05:45:10;-8.80;93.30
27567;DHT22;15006;48.584;9.186;2023-12-04T05:47:36;-8.80;93.10
27567;DHT22;15006;48.584;9.186;2023-12-04T05:50:02;-8.80;92.90
27567;DHT22;15006;48.584;9.186;2023-12-04T05:52:29;-8.90;92.80
27567;DHT22;15006;48.584;9.186;2023-12-04T05:54:55;-8.90;92.90
27567;DHT22;15006;48.584;9.186;2023-12-04T05:57:21;-8.90;93.00
27567;DHT22;15006;48.584;9.186;2023-12-04T05:59:47;-8.80;93.30
27567;DHT22;15006;48.584;9.186;2023-12-04T06:02:13;-8.90;93.50
27567;DHT22;15006;48.584;9.186;2023-12-04T06:04:41;-8.80;93.80
27567;DHT22;15006;48.584;9.186;2023-12-04T06:07:06;-8.80;94.00
27567;DHT22;15006;48.584;9.186;2023-12-04T06:09:33;-8.70;94.10
27567;DHT22;15006;48.584;9.186;2023-12-04T06:11:59;-8.70;94.40
27567;DHT22;15006;48.584;9.186;2023-12-04T06:14:29;-8.70;93.90
27567;DHT22;15006;48.584;9.186;2023-12-04T06:16:56;-8.70;93.80
27567;DHT22;15006;48.584;9.186;2023-12-04T06:19:22;-8.70;93.70
27567;DHT22;15006;48.584;9.186;2023-12-04T06:21:47;-8.60;93.70
27567;DHT22;15006;48.584;9.186;2023-12-04T06:24:14;-8.60;93.70
27567;DHT22;15006;48.584;9.186;2023-12-04T06:26:41;-8.60;93.80
27567;DHT22;15006;48.584;9.186;2023-12-04T06:29:11;-8.60;93.80
27567;DHT22;15006;48.584;9.186;2023-12-04T06:31:37;-8.60;94.00
27567;DHT22;15006;48.584;9.186;2023-12-04T06:34:03;-8.50;94.10
27567;DHT22;15006;48.584;9.186;2023-12-04T06:36:31;-8.50;94.10
27567;DHT22;15006;48.584;9.186;2023-12-04T06:39:05;-8.50;94.10
27567;DHT22;15006;48.584;9.186;2023-12-04T06:41:35;-8.50;94.20
27567;DHT22;15006;48.584;9.186;2023-12-04T06:44:01;-8.40;94.40
27567;DHT22;15006;48.584;9.186;2023-12-04T06:46:29;-8.40;94.30
27567;DHT22;15006;48.584;9.186;2023-12-04T06:49:00;-8.40;94.10
27567;DHT22;15006;48.584;9.186;2023-12-04T06:51:26;-8.30;93.90
27567;DHT22;15006;48.584;9.186;2023-12-04T06:53:52;-8.30;94.00
27567;DHT22;15006;48.584;9.186;2023-12-04T06:56:18;-8.30;94.10
27567;DHT22;15006;48.584;9.186;2023-12-04T06:58:44;-8.30;94.30
27567;DHT22;15006;48.584;9.186;2023-12-04T07:01:10;-8.30;94.30
27567;DHT22;15006;48.584;9.186;2023-12-04T07:03:35;-8.20;94.20
27567;DHT22;15006;48.584;9.186;2023-12-04T07:06:01;-8.20;94.10
27567;DHT22;15006;48.584;9.186;2023-12-04T07:08:27;-8.20;94.20
27567;DHT22;15006;48.584;9.186;2023-12-04T07:10:53;-8.20;94.30
27567;DHT22;15006;48.584;9.186;2023-12-04T07:13:19;-8.10;94.40
27567;DHT22;15006;48.584;9.186;2023-12-04T07:15:46;-8.10;94.30
27567;DHT22;15006;48.584;9.186;2023-12-04T07:18:12;-8.10;94.30
27567;DHT22;15006;48.584;9.186;2023-12-04T07:20:38;-8.10;94.30
27567;DHT22;15006;48.584;9.186;2023-12-04T07:23:03;-8.00;94.20
27567;DHT22;15006;48.584;9.186;2023-12-04T07:25:29;-8.00;94.40
27567;DHT22;15006;48.584;9.186;2023-12-04T07:27:55;-8.00;94.60
27567;DHT22;15006;48.584;9.186;2023-12-04T07:30:23;-7.90;94.90
27567;DHT22;15006;48.584;9.186;2023-12-04T07:32:50;-7.90;95.20
27567;DHT22;15006;48.584;9.186;2023-12-04T07:35:17;-7.80;95.20
27567;DHT22;15006;48.584;9.186;2023-12-04T07:37:44;-7.80;95.00
27567;DHT22;15006;48.584;9.186;2023-12-04T07:40:10;-7.80;95.10
27567;DHT22;15006;48.584;9.186;2023-12-04T07:42:37;-7.70;95.30
27567;DHT22;15006;48.584;9.186;2023-12-04T07:45:03;-7.70;95.50
27567;DHT22;15006;48.584;9.186;2023-12-04T07:47:30;-7.60;95.60
27567;DHT22;15006;48.584;9.186;2023-12-04T07:49:56;-7.50;95.80
27567;DHT22;15006;48.584;9.186;2023-12-04T07:52:22;-7.50;96.10
27567;DHT22;15006;48.584;9.186;2023-12-04T07:54:48;-7.40;96.30
27567;DHT22;15006;48.584;9.186;2023-12-04T07:57:14;-7.30;96.30
27567;DHT22;15006;48.584;9.186;2023-12-04T07:59:40;-7.20;96.30
27567;DHT22;15006;48.584;9.186;2023-12-04T08:02:06;-7.20;96.40
27567;DHT22;15006;48.584;9.186;2023-12-04T08:04:31;-7.10;96.60
27567;DHT22;15006;48.584;9.186;2023-12-04T08:06:57;-7.00;96.80
27567;DHT22;15006;48.584;9.186;2023-12-04T08:09:23;-7.00;96.90
27567;DHT22;15006;48.584;9.186;2023-12-04T08:11:49;-6.90;97.30
27567;DHT22;15006;48.584;9.186;2023-12-04T08:14:15;-6.80;97.60
27567;DHT22;15006;48.584;9.186;2023-12-04T08:16:41;-6.70;97.70
27567;DHT22;15006;48.584;9.186;2023-12-04T08:19:07;-6.60;97.70
27567;DHT22;15006;48.584;9.186;2023-12-04T08:21:33;-6.50;97.70
27567;DHT22;15006;48.584;9.186;2023-12-04T08:23:59;-6.40;97.60
27567;DHT22;15006;48.584;9.186;2023-12-04T08:26:25;-6.40;97.40
27567;DHT22;15006;48.584;9.186;2023-12-04T08:28:52;-6.30;97.20
27567;DHT22;15006;48.584;9.186;2023-12-04T08:31:18;-6.30;97.00
27567;DHT22;15006;48.584;9.186;2023-12-04T08:33:44;-6.20;96.50
27567;DHT22;15006;48.584;9.186;2023-12-04T08:36:11;-6.20;96.30
27567;DHT22;15006;48.584;9.186;2023-12-04T08:38:37;-6.10;96.40
27567;DHT22;15006;48.584;9.186;2023-12-04T08:41:04;-6.10;96.70
27567;DHT22;15006;48.584;9.186;2023-12-04T08:43:30;-6.10;96.40
27567;DHT22;15006;48.584;9.186;2023-12-04T08:45:56;-6.00;96.10
27567;DHT22;15006;48.584;9.186;2023-12-04T08:48:22;-6.00;96.10
27567;DHT22;15006;48.584;9.186;2023-12-04T08:50:48;-6.00;96.30
27567;DHT22;15006;48.584;9.186;2023-12-04T08:53:14;-5.90;96.60
27567;DHT22;15006;48.584;9.186;2023-12-04T08:55:40;-5.90;96.70
27567;DHT22;15006;48.584;9.186;2023-12-04T08:58:06;-5.90;96.60
27567;DHT22;15006;48.584;9.186;2023-12-04T09:00:32;-5.80;96.40
27567;DHT22;15006;48.584;9.186;2023-12-04T09:02:59;-5.80;96.30
27567;DHT22;15006;48.584;9.186;2023-12-04T09:05:25;-5.80;96.30
27567;DHT22;15006;48.584;9.186;2023-12-04T09:07:51;-5.70;96.50
27567;DHT22;15006;48.584;9.186;2023-12-04T09:10:17;-5.70;96.40
27567;DHT22;15006;48.584;9.186;2023-12-04T09:12:43;-5.70;96.30
27567;DHT22;15006;48.584;9.186;2023-12-04T09:15:09;-5.70;96.50
27567;DHT22;15006;48.584;9.186;2023-12-04T09:17:35;-5.70;96.40
27567;DHT22;15006;48.584;9.186;2023-12-04T09:20:01;-5.70;96.30
27567;DHT22;15006;48.584;9.186;2023-12-04T09:22:27;-5.70;96.40
27567;DHT22;15006;48.584;9.186;2023-12-04T09:24:53;-5.60;96.20
27567;DHT22;15006;48.584;9.186;2023-12-04T09:27:19;-5.60;95.90
27567;DHT22;15006;48.584;9.186;2023-12-04T09:29:45;-5.60;96.00
27567;DHT22;15006;48.584;9.186;2023-12-04T09:32:11;-5.60;96.40
27567;DHT22;15006;48.584;9.186;2023-12-04T09:34:37;-5.60;96.50
27567;DHT22;15006;48.584;9.186;2023-12-04T09:37:03;-5.50;96.80
27567;DHT22;15006;48.584;9.186;2023-12-04T09:39:29;-5.50;96.90
27567;DHT22;15006;48.584;9.186;2023-12-04T09:41:55;-5.40;97.10
27567;DHT22;15006;48.584;9.186;2023-12-04T09:44:24;-5.40;97.10
27567;DHT22;15006;48.584;9.186;2023-12-04T09:46:51;-5.40;97.40
27567;DHT22;15006;48.584;9.186;2023-12-04T09:49:17;-5.30;97.70
27567;DHT22;15006;48.584;9.186;2023-12-04T09:51:44;-5.20;98.10
27567;DHT22;15006;48.584;9.186;2023-12-04T09:54:11;-5.20;98.60
27567;DHT22;15006;48.584;9.186;2023-12-04T09:56:37;-5.10;98.10
27567;DHT22;15006;48.584;9.186;2023-12-04T09:59:06;-5.00;98.10
27567;DHT22;15006;48.584;9.186;2023-12-04T10:01:33;-4.90;97.30
27567;DHT22;15006;48.584;9.186;2023-12-04T10:04:02;-4.80;96.70
27567;DHT22;15006;48.584;9.186;2023-12-04T10:06:31;-4.80;97.00
27567;DHT22;15006;48.584;9.186;2023-12-04T10:08:57;-4.70;97.00
27567;DHT22;15006;48.584;9.186;2023-12-04T10:11:24;-4.70;97.10
27567;DHT22;15006;48.584;9.186;2023-12-04T10:13:53;-4.70;97.00
27567;DHT22;15006;48.584;9.186;2023-12-04T10:16:47;-4.60;96.40
27567;DHT22;15006;48.584;9.186;2023-12-04T10:19:24;-4.60;95.20
27567;DHT22;15006;48.584;9.186;2023-12-04T10:21:57;-4.60;95.90
27567;DHT22;15006;48.584;9.186;2023-12-04T10:26:55;-4.60;96.50
27567;DHT22;15006;48.584;9.186;2023-12-04T10:29:22;-4.50;96.20
27567;DHT22;15006;48.584;9.186;2023-12-04T10:31:50;-4.50;97.00
27567;DHT22;15006;48.584;9.186;2023-12-04T10:34:18;-4.50;97.30
27567;DHT22;15006;48.584;9.186;2023-12-04T10:36:45;-4.40;98.20
27567;DHT22;15006;48.584;9.186;2023-12-04T10:39:11;-4.40;98.70
27567;DHT22;15006;48.584;9.186;2023-12-04T10:41:39;-4.30;99.50
27567;DHT22;15006;48.584;9.186;2023-12-04T10:44:05;-4.20;99.90
27567;DHT22;15006;48.584;9.186;2023-12-04T10:46:32;-4.10;98.90
27567;DHT22;15006;48.584;9.186;2023-12-04T10:49:03;-4.00;97.80
27567;DHT22;15006;48.584;9.186;2023-12-04T10:51:30;-3.90;97.30
27567;DHT22;15006;48.584;9.186;2023-12-04T10:53:56;-3.90;96.70
27567;DHT22;15006;48.584;9.186;2023-12-04T10:56:36;-3.80;97.10
27567;DHT22;15006;48.584;9.186;2023-12-04T10:59:08;-3.80;97.00
27567;DHT22;15006;48.584;9.186;2023-12-04T11:01:38;-3.70;98.20
27567;DHT22;15006;48.584;9.186;2023-12-04T11:04:07;-3.60;98.90
27567;DHT22;15006;48.584;9.186;2023-12-04T11:06:39;-3.60;99.90
27567;DHT22;15006;48.584;9.186;2023-12-04T11:09:06;-3.40;99.90
27567;DHT22;15006;48.584;9.186;2023-12-04T11:11:40;-3.20;99.90
27567;DHT22;15006;48.584;9.186;2023-12-04T11:14:11;-3.10;99.20
27567;DHT22;15006;48.584;9.186;2023-12-04T11:16:49;-2.90;99.90
27567;DHT22;15006;48.584;9.186;2023-12-04T11:19:29;-2.80;98.50
27567;DHT22;15006;48.584;9.186;2023-12-04T11:21:58;-2.70;99.10
27567;DHT22;15006;48.584;9.186;2023-12-04T11:24:25;-2.70;99.10
27567;DHT22;15006;48.584;9.186;2023-12-04T11:26:52;-2.60;97.60
27567;DHT22;15006;48.584;9.186;2023-12-04T11:29:19;-2.60;97.20
27567;DHT22;15006;48.584;9.186;2023-12-04T11:31:45;-2.70;96.40
27567;DHT22;15006;48.584;9.186;2023-12-04T11:34:12;-2.70;96.40
27567;DHT22;15006;48.584;9.186;2023-12-04T11:36:38;-2.80;97.10
27567;DHT22;15006;48.584;9.186;2023-12-04T11:39:09;-2.80;98.00
27567;DHT22;15006;48.584;9.186;2023-12-04T11:41:36;-2.80;97.90
27567;DHT22;15006;48.584;9.186;2023-12-04T11:44:03;-2.80;99.30
27567;DHT22;15006;48.584;9.186;2023-12-04T11:46:29;-2.70;99.90
27567;DHT22;15006;48.584;9.186;2023-12-04T11:51:51;-2.60;97.90
27567;DHT22;15006;48.584;9.186;2023-12-04T11:54:19;-2.60;99.90
27567;DHT22;15006;48.584;9.186;2023-12-04T11:57:00;-2.50;99.90
27567;DHT22;15006;48.584;9.186;2023-12-04T11:59:38;-2.40;99.90
27567;DHT22;15006;48.584;9.186;2023-12-04T12:02:08;-2.30;99.90
27567;DHT22;15006;48.584;9.186;2023-12-04T12:04:34;-2.20;99.90
27567;DHT22;15006;48.584;9.186;2023-12-04T12:07:01;-2.10;99.90
27567;DHT22;15006;48.584;9.186;2023-12-04T12:09:28;-2.00;99.90
27567;DHT22;15006;48.584;9.186;2023-12-04T12:11:54;-1.90;99.90
27567;DHT22;15006;48.584;9.186;2023-12-04T12:14:21;-1.80;99.90
27567;DHT22;15006;48.584;9.186;2023-12-04T12:16:48;-1.70;99.90
27567;DHT22;15006;48.584;9.186;2023-12-04T12:19:14;-1.60;99.90
27567;DHT22;15006;48.584;9.186;2023-12-04T12:21:42;-1.50;99.90
27567;DHT22;15006;48.584;9.186;2023-12-04T12:24:08;-1.40;99.90
27567;DHT22;15006;48.584;9.186;2023-12-04T12:26:37;-1.20;99.90
27567;DHT22;15006;48.584;9.186;2023-12-04T12:29:03;-1.10;99.90
27567;DHT22;15006;48.584;9.186;2023-12-04T12:31:29;-1.00;99.90
27567;DHT22;15006;48.584;9.186;2023-12-04T12:33:56;-0.90;99.90
27567;DHT22;15006;48.584;9.186;2023-12-04T12:36:22;-0.80;99.90
27567;DHT22;15006;48.584;9.186;2023-12-04T12:38:48;-0.70;99.30
27567;DHT22;15006;48.584;9.186;2023-12-04T12:41:18;-0.70;99.30
27567;DHT22;15006;48.584;9.186;2023-12-04T12:43:45;-0.70;98.50
27567;DHT22;15006;48.584;9.186;2023-12-04T12:46:13;-0.70;99.20
27567;DHT22;15006;48.584;9.186;2023-12-04T12:48:39;-0.70;99.20
27567;DHT22;15006;48.584;9.186;2023-12-04T12:51:05;-0.70;99.20
27567;DHT22;15006;48.584;9.186;2023-12-04T12:53:33;-0.60;99.00
27567;DHT22;15006;48.584;9.186;2023-12-04T12:56:00;-0.70;98.90
27567;DHT22;15006;48.584;9.186;2023-12-04T12:58:27;-0.70;98.40
27567;DHT22;15006;48.584;9.186;2023-12-04T13:00:54;-0.70;98.80
27567;DHT22;15006;48.584;9.186;2023-12-04T13:03:20;-0.70;98.70
27567;DHT22;15006;48.584;9.186;2023-12-04T13:05:47;-0.70;99.50
27567;DHT22;15006;48.584;9.186;2023-12-04T13:08:13;-0.70;99.30
27567;DHT22;15006;48.584;9.186;2023-12-04T13:10:41;-0.60;99.50
27567;DHT22;15006;48.584;9.186;2023-12-04T13:13:11;-0.60;98.40
27567;DHT22;15006;48.584;9.186;2023-12-04T13:15:43;-0.60;97.10
27567;DHT22;15006;48.584;9.186;2023-12-04T13:18:09;-0.70;95.60
27567;DHT22;15006;48.584;9.186;2023-12-04T13:20:35;-0.70;96.10
27567;DHT22;15006;48.584;9.186;2023-12-04T13:23:02;-0.80;96.00
27567;DHT22;15006;48.584;9.186;2023-12-04T13:25:28;-0.80;95.50
27567;DHT22;15006;48.584;9.186;2023-12-04T13:27:54;-0.90;96.30
27567;DHT22;15006;48.584;9.186;2023-12-04T13:30:20;-1.00;95.70
27567;DHT22;15006;48.584;9.186;2023-12-04T13:32:46;-1.00;96.60
27567;DHT22;15006;48.584;9.186;2023-12-04T13:35:12;-1.10;97.30
27567;DHT22;15006;48.584;9.186;2023-12-04T13:37:38;-1.10;97.70
27567;DHT22;15006;48.584;9.186;2023-12-04T13:40:06;-1.10;98.20
27567;DHT22;15006;48.584;9.186;2023-12-04T13:42:34;-1.10;97.40
27567;DHT22;15006;48.584;9.186;2023-12-04T13:45:19;-1.20;97.60
27567;DHT22;15006;48.584;9.186;2023-12-04T13:47:49;-1.20;97.00
27567;DHT22;15006;48.584;9.186;2023-12-04T13:50:16;-1.30;94.90
27567;DHT22;15006;48.584;9.186;2023-12-04T13:52:43;-1.40;94.70
27567;DHT22;15006;48.584;9.186;2023-12-04T13:55:09;-1.40;95.90
27567;DHT22;15006;48.584;9.186;2023-12-04T13:58:00;-1.50;96.20
27567;DHT22;15006;48.584;9.186;2023-12-04T14:00:29;-1.60;97.10
27567;DHT22;15006;48.584;9.186;2023-12-04T14:02:55;-1.60;97.70
27567;DHT22;15006;48.584;9.186;2023-12-04T14:05:33;-1.60;98.20
27567;DHT22;15006;48.584;9.186;2023-12-04T14:08:00;-1.60;98.00
27567;DHT22;15006;48.584;9.186;2023-12-04T14:10:26;-1.60;98.70
27567;DHT22;15006;48.584;9.186;2023-12-04T14:12:54;-1.60;97.90
27567;DHT22;15006;48.584;9.186;2023-12-04T14:15:20;-1.60;97.40
27567;DHT22;15006;48.584;9.186;2023-12-04T14:17:46;-1.70;97.50
27567;DHT22;15006;48.584;9.186;2023-12-04T14:20:12;-1.70;97.90
27567;DHT22;15006;48.584;9.186;2023-12-04T14:22:45;-1.70;97.90
27567;DHT22;15006;48.584;9.186;2023-12-04T14:25:11;-1.70;97.90
27567;DHT22;15006;48.584;9.186;2023-12-04T14:27:37;-1.70;95.30
27567;DHT22;15006;48.584;9.186;2023-12-04T14:30:08;-1.70;98.60
27567;DHT22;15006;48.584;9.186;2023-12-04T14:32:35;-1.70;98.50
27567;DHT22;15006;48.584;9.186;2023-12-04T14:35:05;-1.80;98.30
27567;DHT22;15006;48.584;9.186;2023-12-04T14:37:33;-1.80;97.30
27567;DHT22;15006;48.584;9.186;2023-12-04T14:39:59;-1.80;94.20
27567;DHT22;15006;48.584;9.186;2023-12-04T14:42:25;-1.90;97.70
27567;DHT22;15006;48.584;9.186;2023-12-04T14:44:51;-1.90;97.90
27567;DHT22;15006;48.584;9.186;2023-12-04T14:47:17;-2.00;97.80
27567;DHT22;15006;48.584;9.186;2023-12-04T14:49:43;-2.00;98.10
27567;DHT22;15006;48.584;9.186;2023-12-04T14:52:09;-2.00;98.40
27567;DHT22;15006;48.584;9.186;2023-12-04T14:54:36;-2.10;98.40
27567;DHT22;15006;48.584;9.186;2023-12-04T14:57:28;-2.10;98.50
27567;DHT22;15006;48.584;9.186;2023-12-04T15:00:10;-2.10;98.80
27567;DHT22;15006;48.584;9.186;2023-12-04T15:02:55;-2.20;98.40
27567;DHT22;15006;48.584;9.186;2023-12-04T15:05:39;-2.20;99.20
27567;DHT22;15006;48.584;9.186;2023-12-04T15:08:05;-2.20;99.40
27567;DHT22;15006;48.584;9.186;2023-12-04T15:10:50;-2.20;99.50
27567;DHT22;15006;48.584;9.186;2023-12-04T15:13:35;-2.20;99.70
27567;DHT22;15006;48.584;9.186;2023-12-04T15:16:03;-2.20;99.90
27567;DHT22;15006;48.584;9.186;2023-12-04T15:18:39;-2.20;99.90
27567;DHT22;15006;48.584;9.186;2023-12-04T15:21:18;-2.20;99.90
27567;DHT22;15006;48.584;9.186;2023-12-04T15:23:45;-2.20;99.90
27567;DHT22;15006;48.584;9.186;2023-12-04T15:26:11;-2.20;99.90
27567;DHT22;15006;48.584;9.186;2023-12-04T15:28:37;-2.20;99.90
27567;DHT22;15006;48.584;9.186;2023-12-04T15:31:03;-2.20;99.90
27567;DHT22;15006;48.584;9.186;2023-12-04T15:33:29;-2.20;99.90